createdAt,value
2017-11-10T00:00:26.131Z,100568.40
2017-11-10T00:02:53.684Z,100565.30
2017-11-10T00:05:21.273Z,100561.83
2017-11-10T00:07:48.828Z,100569.23
2017-11-10T00:10:16.382Z,100570.67
2017-11-10T00:12:43.968Z,100569.39
2017-11-10T00:15:11.528Z,100571.28
2017-11-10T00:17:39.075Z,100569.94
2017-11-10T00:20:06.678Z,100571.35
2017-11-10T00:22:34.227Z,100573.46
2017-11-10T00:25:01.771Z,100563.36
2017-11-10T00:27:29.358Z,100573.75
2017-11-10T00:29:56.919Z,100573.11
2017-11-10T00:32:24.476Z,100570.59
2017-11-10T00:34:52.060Z,100570.03
2017-11-10T00:37:19.619Z,100576.19
2017-11-10T00:39:47.179Z,100574.66
2017-11-10T00:42:14.764Z,100575.59
2017-11-10T00:44:42.319Z,100571.73
2017-11-10T00:47:10.018Z,100575.54
2017-11-10T00:49:37.685Z,100574.04
2017-11-10T00:52:05.316Z,100568.67
2017-11-10T00:54:32.929Z,100559.37
2017-11-10T00:57:00.728Z,100563.69
2017-11-10T00:59:28.413Z,100555.16
2017-11-10T01:01:56.034Z,100558.30
2017-11-10T01:04:23.707Z,100553.84
2017-11-10T01:06:51.328Z,100559.26
2017-11-10T01:09:18.957Z,100560.60
2017-11-10T01:11:46.620Z,100559.52
2017-11-10T01:14:14.235Z,100553.98
2017-11-10T01:16:41.908Z,100549.37
2017-11-10T01:19:09.591Z,100549.03
2017-11-10T01:21:37.291Z,100547.11
2017-11-10T01:24:04.915Z,100544.58
2017-11-10T01:26:32.587Z,100545.50
2017-11-10T01:29:00.276Z,100550.88
2017-11-10T01:31:27.893Z,100548.14
2017-11-10T01:33:55.560Z,100535.03
2017-11-10T01:36:23.181Z,100539.96
2017-11-10T01:38:50.864Z,100550.22
2017-11-10T01:41:18.543Z,100545.50
2017-11-10T01:43:46.181Z,100544.27
2017-11-10T01:46:13.793Z,100545.77
2017-11-10T01:48:43.323Z,100544.19
2017-11-10T01:51:10.944Z,100543.66
2017-11-10T01:53:38.584Z,100539.31
2017-11-10T01:56:06.274Z,100539.23
2017-11-10T01:58:33.969Z,100546.11
2017-11-10T02:01:01.698Z,100543.18
2017-11-10T02:03:29.441Z,100540.75
2017-11-10T02:05:57.124Z,100538.36
2017-11-10T02:08:24.818Z,100539.97
2017-11-10T02:10:52.494Z,100538.00
2017-11-10T02:13:20.186Z,100542.23
2017-11-10T02:15:47.812Z,100542.65
2017-11-10T02:18:15.492Z,100537.70
2017-11-10T02:20:43.150Z,100534.05
2017-11-10T02:23:10.775Z,100536.09
2017-11-10T02:25:38.522Z,100534.05
2017-11-10T02:28:06.172Z,100535.66
2017-11-10T02:30:33.812Z,100534.66
2017-11-10T02:33:01.512Z,100542.20
2017-11-10T02:35:29.253Z,100535.98
2017-11-10T02:37:56.882Z,100534.13
2017-11-10T02:40:24.688Z,100542.52
2017-11-10T02:42:52.373Z,100540.17
2017-11-10T02:45:20.009Z,100542.02
2017-11-10T02:47:47.685Z,100547.19
2017-11-10T02:50:15.325Z,100545.11
2017-11-10T02:52:42.974Z,100546.34
2017-11-10T02:55:10.720Z,100543.92
2017-11-10T02:57:38.397Z,100545.42
2017-11-10T03:00:06.025Z,100543.23
2017-11-10T03:02:33.700Z,100542.58
2017-11-10T03:05:01.310Z,100540.34
2017-11-10T03:07:29.013Z,100538.41
2017-11-10T03:09:56.777Z,100535.50
2017-11-10T03:12:24.421Z,100530.20
2017-11-10T03:14:52.123Z,100519.20
2017-11-10T03:17:19.808Z,100528.03
2017-11-10T03:19:47.494Z,100523.23
2017-11-10T03:22:15.111Z,100524.00
2017-11-10T03:24:42.767Z,100522.16
2017-11-10T03:27:10.419Z,100520.14
2017-11-10T03:29:38.120Z,100519.38
2017-11-10T03:32:05.813Z,100519.95
2017-11-10T03:34:33.436Z,100523.57
2017-11-10T03:37:01.059Z,100517.34
2017-11-10T03:39:28.743Z,100518.29
2017-11-10T03:41:56.380Z,100520.56
2017-11-10T03:44:24.022Z,100522.35
2017-11-10T03:46:51.726Z,100513.77
2017-11-10T03:49:19.392Z,100519.81
2017-11-10T03:51:47.081Z,100521.60
2017-11-10T03:54:14.747Z,100523.28
2017-11-10T03:56:42.387Z,100527.51
2017-11-10T03:59:10.011Z,100528.34
2017-11-10T04:01:37.693Z,100527.59
2017-11-10T04:04:05.323Z,100534.16
2017-11-10T04:06:32.948Z,100528.16
2017-11-10T04:09:00.628Z,100529.63
2017-11-10T04:11:28.285Z,100522.30
2017-11-10T04:13:55.916Z,100521.84
2017-11-10T04:16:23.705Z,100520.72
2017-11-10T04:18:51.398Z,100521.02
2017-11-10T04:21:19.021Z,100521.92
2017-11-10T04:23:46.754Z,100525.04
2017-11-10T04:26:14.376Z,100530.81
2017-11-10T04:28:42.080Z,100532.89
2017-11-10T04:31:09.763Z,100521.64
2017-11-10T04:33:37.423Z,100524.17
2017-11-10T04:36:05.156Z,100524.25
2017-11-10T04:38:33.050Z,100526.41
2017-11-10T04:41:00.728Z,100527.22
2017-11-10T04:43:28.409Z,100522.88
2017-11-10T04:45:56.108Z,100525.83
2017-11-10T04:48:23.732Z,100526.33
2017-11-10T04:50:51.374Z,100527.52
2017-11-10T04:53:19.056Z,100533.40
2017-11-10T04:55:46.750Z,100527.52
2017-11-10T04:58:14.380Z,100532.89
2017-11-10T05:00:42.048Z,100536.38
2017-11-10T05:03:09.675Z,100535.95
2017-11-10T05:05:37.293Z,100532.92
2017-11-10T05:08:05.037Z,100534.11
2017-11-10T05:10:32.677Z,100535.24
2017-11-10T05:13:00.297Z,100530.78
2017-11-10T05:15:28.029Z,100528.70
2017-11-10T05:17:55.706Z,100529.20
2017-11-10T05:20:23.339Z,100531.65
2017-11-10T05:22:51.044Z,100539.66
2017-11-10T05:25:18.731Z,100539.99
2017-11-10T05:27:46.421Z,100540.09
2017-11-10T05:30:14.220Z,100544.58
2017-11-10T05:32:41.959Z,100542.48
2017-11-10T05:35:09.648Z,100548.13
2017-11-10T05:37:37.413Z,100542.05
2017-11-10T05:40:05.089Z,100547.69
2017-11-10T05:42:32.767Z,100547.45
2017-11-10T05:45:00.599Z,100541.16
2017-11-10T05:47:28.266Z,100548.38
2017-11-10T05:49:55.948Z,100551.50
2017-11-10T05:52:23.737Z,100554.53
2017-11-10T05:54:51.480Z,100553.27
2017-11-10T05:57:19.167Z,100549.47
2017-11-10T05:59:46.893Z,100548.89
2017-11-10T06:02:14.631Z,100552.69
2017-11-10T06:04:42.350Z,100550.58
2017-11-10T06:07:10.025Z,100554.11
2017-11-10T06:09:37.652Z,100555.95
2017-11-10T06:12:05.341Z,100550.56
2017-11-10T06:14:33.085Z,100557.64
2017-11-10T06:17:00.774Z,100558.31
2017-11-10T06:19:28.388Z,100558.91
2017-11-10T06:21:56.149Z,100562.02
2017-11-10T06:24:23.781Z,100568.44
2017-11-10T06:26:51.408Z,100562.47
2017-11-10T06:29:19.086Z,100564.08
2017-11-10T06:31:46.705Z,100559.60
2017-11-10T06:34:14.332Z,100563.23
2017-11-10T06:36:42.008Z,100559.73
2017-11-10T06:39:09.642Z,100563.59
2017-11-10T06:41:37.337Z,100561.24
2017-11-10T06:44:05.045Z,100559.70
2017-11-10T06:46:32.676Z,100556.52
2017-11-10T06:49:01.281Z,100559.28
2017-11-10T06:51:28.954Z,100563.66
2017-11-10T06:53:56.636Z,100561.27
2017-11-10T06:56:24.317Z,100564.62
2017-11-10T06:58:51.990Z,100568.30
2017-11-10T07:01:19.612Z,100569.55
2017-11-10T07:03:47.272Z,100572.86
2017-11-10T07:06:14.969Z,100564.60
2017-11-10T07:08:42.596Z,100563.67
2017-11-10T07:11:10.281Z,100566.81
2017-11-10T07:13:38.018Z,100566.56
2017-11-10T07:16:05.700Z,100571.76
2017-11-10T07:18:33.325Z,100574.25
2017-11-10T07:21:01.000Z,100574.28
2017-11-10T07:23:28.617Z,100571.63
2017-11-10T07:25:56.677Z,100575.77
2017-11-10T07:28:24.352Z,100570.80
2017-11-10T07:30:51.977Z,100571.89
2017-11-10T07:33:19.598Z,100572.32
2017-11-10T07:35:47.340Z,100569.91
2017-11-10T07:38:14.956Z,100576.52
2017-11-10T07:40:42.584Z,100575.09
2017-11-10T07:43:10.320Z,100575.41
2017-11-10T07:45:37.954Z,100574.27
2017-11-10T07:48:05.646Z,100574.45
2017-11-10T07:50:33.320Z,100571.27
2017-11-10T07:53:00.953Z,100574.83
2017-11-10T07:55:28.617Z,100572.48
2017-11-10T07:57:56.380Z,100573.23
2017-11-10T08:00:24.096Z,100579.30
2017-11-10T08:02:51.752Z,100582.66
2017-11-10T08:05:19.484Z,100584.03
2017-11-10T08:07:47.166Z,100583.53
2017-11-10T08:10:14.836Z,100587.85
2017-11-10T08:12:42.761Z,100585.62
2017-11-10T08:15:10.767Z,100583.27
2017-11-10T08:17:38.595Z,100579.87
2017-11-10T08:20:07.101Z,100582.34
2017-11-10T08:22:34.786Z,100592.06
2017-11-10T08:25:02.413Z,100583.00
2017-11-10T08:27:30.088Z,100588.75
2017-11-10T08:29:57.771Z,100596.37
2017-11-10T08:32:25.418Z,100597.29
2017-11-10T08:34:53.119Z,100596.80
2017-11-10T08:37:20.788Z,100593.41
2017-11-10T08:39:48.489Z,100590.25
2017-11-10T08:42:16.185Z,100592.95
2017-11-10T08:44:43.812Z,100587.64
2017-11-10T08:47:11.498Z,100586.31
2017-11-10T08:49:39.176Z,100589.56
2017-11-10T08:52:06.976Z,100587.03
2017-11-10T08:54:34.600Z,100588.59
2017-11-10T08:57:02.276Z,100581.89
2017-11-10T08:59:29.965Z,100584.41
2017-11-10T09:01:57.711Z,100570.88
2017-11-10T09:04:25.429Z,100567.67
2017-11-10T09:06:53.121Z,100572.47
2017-11-10T09:09:20.859Z,100565.84
2017-11-10T09:11:48.536Z,100558.56
2017-11-10T09:14:16.244Z,100562.55
2017-11-10T09:16:43.875Z,100568.92
2017-11-10T09:19:11.604Z,100564.09
2017-11-10T09:21:39.361Z,100566.16
2017-11-10T09:24:07.043Z,100558.86
2017-11-10T09:26:34.873Z,100557.47
2017-11-10T09:32:10.173Z,100556.80
2017-11-10T09:34:37.868Z,100548.50
2017-11-10T09:40:19.017Z,100545.63
2017-11-10T09:45:54.595Z,100530.08
2017-11-10T09:48:29.872Z,100532.89
2017-11-10T09:51:03.117Z,100527.89
2017-11-10T09:53:36.248Z,100530.77
2017-11-10T09:56:18.958Z,100524.41
2017-11-10T10:02:09.147Z,100518.18
2017-11-10T10:04:42.512Z,100507.90
2017-11-10T10:10:12.017Z,100512.73
2017-11-10T10:16:04.284Z,100501.22
2017-11-10T10:18:47.493Z,100504.02
2017-11-10T10:21:20.725Z,100497.78
2017-11-10T10:23:49.504Z,100496.67
2017-11-10T10:26:18.119Z,100496.06
2017-11-10T10:28:46.573Z,100487.78
2017-11-10T10:31:14.198Z,100481.50
2017-11-10T10:33:41.828Z,100483.66
2017-11-10T10:36:10.229Z,100481.36
2017-11-10T10:38:37.918Z,100473.55
2017-11-10T10:41:05.565Z,100465.56
2017-11-10T10:43:33.253Z,100468.00
2017-11-10T10:46:00.888Z,100453.69
2017-11-10T10:48:28.524Z,100458.64
2017-11-10T10:50:56.221Z,100454.15
2017-11-10T10:53:23.906Z,100447.80
2017-11-10T10:55:51.593Z,100433.92
2017-11-10T10:58:20.056Z,100442.20
2017-11-10T11:00:47.777Z,100432.27
2017-11-10T11:03:15.416Z,100431.53
2017-11-10T11:05:43.173Z,100431.80
2017-11-10T11:08:10.796Z,100428.81
2017-11-10T11:10:38.666Z,100426.00
2017-11-10T11:13:06.500Z,100422.38
2017-11-10T11:15:34.279Z,100423.37
2017-11-10T11:18:01.899Z,100424.84
2017-11-10T11:20:29.669Z,100419.31
2017-11-10T11:22:57.359Z,100417.20
2017-11-10T11:25:24.996Z,100413.97
2017-11-10T11:27:52.672Z,100411.88
2017-11-10T11:30:20.287Z,100412.80
2017-11-10T11:32:47.918Z,100410.26
2017-11-10T11:35:15.701Z,100406.70
2017-11-10T11:37:43.332Z,100399.63
2017-11-10T11:40:11.019Z,100403.61
2017-11-10T11:42:38.700Z,100398.50
2017-11-10T11:45:06.418Z,100398.33
2017-11-10T11:47:34.124Z,100397.49
2017-11-10T11:50:01.808Z,100397.33
2017-11-10T11:52:29.456Z,100395.03
2017-11-10T11:54:57.083Z,100391.17
2017-11-10T11:57:24.756Z,100384.77
2017-11-10T11:59:52.381Z,100381.67
2017-11-10T12:02:20.037Z,100383.91
2017-11-10T12:04:47.704Z,100381.16
2017-11-10T12:07:15.325Z,100376.56
2017-11-10T12:09:43.019Z,100373.98
2017-11-10T12:12:10.736Z,100375.87
2017-11-10T12:14:38.357Z,100377.13
2017-11-10T12:17:06.216Z,100375.80
2017-11-10T12:19:33.944Z,100378.66
2017-11-10T12:22:01.734Z,100372.27
2017-11-10T12:24:29.481Z,100372.24
2017-11-10T12:26:57.220Z,100371.93
2017-11-10T12:29:24.933Z,100370.31
2017-11-10T12:31:52.632Z,100369.39
2017-11-10T12:34:20.337Z,100370.77
2017-11-10T12:36:48.197Z,100369.80
2017-11-10T12:39:15.817Z,100372.66
2017-11-10T12:41:43.736Z,100362.22
2017-11-10T12:44:11.369Z,100362.91
2017-11-10T12:46:39.006Z,100364.60
2017-11-10T12:49:06.717Z,100365.22
2017-11-10T12:51:35.769Z,100364.27
2017-11-10T12:54:04.248Z,100365.50
2017-11-10T12:56:32.237Z,100361.41
2017-11-10T12:59:00.068Z,100360.20
2017-11-10T13:01:27.981Z,100358.27
2017-11-10T13:03:55.669Z,100359.63
2017-11-10T13:06:23.349Z,100363.14
2017-11-10T13:08:51.029Z,100357.80
2017-11-10T13:11:18.773Z,100357.17
2017-11-10T13:13:46.464Z,100358.76
2017-11-10T13:16:14.220Z,100355.71
2017-11-10T13:18:42.670Z,100355.37
2017-11-10T13:21:11.089Z,100354.44
2017-11-10T13:23:38.781Z,100357.36
2017-11-10T13:26:06.568Z,100355.91
2017-11-10T13:28:34.262Z,100357.77
2017-11-10T13:31:01.954Z,100359.80
2017-11-10T13:33:29.633Z,100363.30
2017-11-10T13:35:57.348Z,100358.19
2017-11-10T13:38:25.018Z,100358.61
2017-11-10T13:40:52.691Z,100358.03
2017-11-10T13:43:20.368Z,100358.34
2017-11-10T13:45:48.344Z,100358.63
2017-11-10T13:48:16.021Z,100360.13
2017-11-10T13:50:43.647Z,100360.34
2017-11-10T13:53:11.416Z,100360.27
2017-11-10T13:55:39.281Z,100361.34
2017-11-10T13:58:06.909Z,100360.84
2017-11-10T14:00:34.604Z,100363.44
2017-11-10T14:03:02.330Z,100363.16
2017-11-10T14:05:30.057Z,100358.77
2017-11-10T14:07:57.869Z,100364.78
2017-11-10T14:10:25.645Z,100364.26
2017-11-10T14:12:53.333Z,100369.30
2017-11-10T14:15:20.974Z,100364.94
2017-11-10T14:17:48.828Z,100362.55
2017-11-10T14:20:16.520Z,100362.39
2017-11-10T14:22:44.144Z,100361.23
2017-11-10T14:25:11.873Z,100361.78
2017-11-10T14:27:39.509Z,100365.63
2017-11-10T14:30:10.056Z,100362.42
2017-11-10T14:32:37.717Z,100365.66
2017-11-10T14:35:05.341Z,100373.39
2017-11-10T14:37:32.969Z,100375.50
2017-11-10T14:40:00.713Z,100375.20
2017-11-10T14:42:28.333Z,100370.41
2017-11-10T14:44:56.084Z,100371.08
2017-11-10T14:47:23.772Z,100368.59
2017-11-10T14:49:51.392Z,100371.50
2017-11-10T14:52:19.114Z,100370.47
2017-11-10T14:54:46.788Z,100372.52
2017-11-10T14:57:14.550Z,100367.05
2017-11-10T14:59:42.250Z,100366.77
2017-11-10T15:02:11.061Z,100364.16
2017-11-10T15:04:38.854Z,100367.06
2017-11-10T15:07:13.552Z,100365.52
2017-11-10T15:09:41.232Z,100360.36
2017-11-10T15:12:09.209Z,100361.88
2017-11-10T15:14:36.881Z,100365.72
2017-11-10T15:17:04.537Z,100369.72
2017-11-10T15:19:32.185Z,100365.71
2017-11-10T15:21:59.889Z,100362.46
2017-11-10T15:24:27.581Z,100363.22
2017-11-10T15:26:55.293Z,100357.77
2017-11-10T15:29:23.056Z,100356.88
2017-11-10T15:31:50.800Z,100359.16
2017-11-10T15:34:18.477Z,100363.30
2017-11-10T15:36:46.209Z,100362.23
2017-11-10T15:39:13.973Z,100371.12
2017-11-10T15:41:41.605Z,100374.58
2017-11-10T15:44:09.317Z,100376.36
2017-11-10T15:46:37.044Z,100373.23
2017-11-10T15:49:04.737Z,100367.45
2017-11-10T15:51:32.407Z,100375.24
2017-11-10T15:54:00.089Z,100373.64
2017-11-10T15:56:27.877Z,100373.89
2017-11-10T15:58:55.577Z,100375.06
2017-11-10T16:01:23.204Z,100375.16
2017-11-10T16:03:52.243Z,100379.75
2017-11-10T16:06:19.947Z,100371.11
2017-11-10T16:08:47.579Z,100369.56
2017-11-10T16:11:15.421Z,100371.92
2017-11-10T16:13:43.425Z,100369.91
2017-11-10T16:16:11.101Z,100377.18
2017-11-10T16:18:38.896Z,100375.81
2017-11-10T16:21:06.621Z,100367.46
2017-11-10T16:23:34.302Z,100365.98
2017-11-10T16:26:01.965Z,100359.17
2017-11-10T16:28:29.729Z,100361.41
2017-11-10T16:30:57.388Z,100360.14
2017-11-10T16:33:25.004Z,100362.14
2017-11-10T16:35:52.680Z,100366.67
2017-11-10T16:38:20.297Z,100353.40
2017-11-10T16:40:47.915Z,100352.63
2017-11-10T16:43:15.576Z,100356.36
2017-11-10T16:45:43.414Z,100358.28
2017-11-10T16:48:11.112Z,100361.97
2017-11-10T16:50:38.872Z,100361.36
2017-11-10T16:53:06.570Z,100350.27
2017-11-10T16:55:34.287Z,100349.23
2017-11-10T16:58:01.964Z,100355.83
2017-11-10T17:00:29.691Z,100355.22
2017-11-10T17:02:57.327Z,100359.89
2017-11-10T17:05:25.025Z,100358.63
2017-11-10T17:07:52.733Z,100364.91
2017-11-10T17:10:20.472Z,100362.11
2017-11-10T17:12:48.227Z,100358.92
2017-11-10T17:15:15.852Z,100356.13
2017-11-10T17:17:43.480Z,100355.77
2017-11-10T17:20:11.238Z,100349.29
2017-11-10T17:22:39.104Z,100347.06
2017-11-10T17:25:06.789Z,100354.00
2017-11-10T17:27:34.512Z,100349.55
2017-11-10T17:30:02.224Z,100354.33
2017-11-10T17:32:29.946Z,100348.70
2017-11-10T17:34:57.632Z,100351.66
2017-11-10T17:37:25.281Z,100349.84
2017-11-10T17:39:52.907Z,100349.98
2017-11-10T17:42:20.648Z,100350.28
2017-11-10T17:44:48.323Z,100348.09
2017-11-10T17:47:16.013Z,100347.27
2017-11-10T17:49:43.801Z,100348.97
2017-11-10T17:52:11.565Z,100347.44
2017-11-10T17:54:39.272Z,100345.37
2017-11-10T17:57:07.036Z,100337.67
2017-11-10T17:59:34.684Z,100340.91
2017-11-10T18:02:02.300Z,100342.34
2017-11-10T18:04:30.120Z,100342.34
2017-11-10T18:06:57.744Z,100346.44
2017-11-10T18:09:25.446Z,100342.42
2017-11-10T18:11:53.119Z,100343.33
2017-11-10T18:14:20.820Z,100351.11
2017-11-10T18:16:48.456Z,100346.87
2017-11-10T18:19:16.196Z,100345.03
2017-11-10T18:21:43.966Z,100337.83
2017-11-10T18:24:11.641Z,100344.48
2017-11-10T18:26:39.320Z,100341.48
2017-11-10T18:29:07.000Z,100340.72
2017-11-10T18:31:34.818Z,100336.77
2017-11-10T18:34:02.500Z,100343.77
2017-11-10T18:36:30.185Z,100335.07
2017-11-10T18:38:57.820Z,100335.94
2017-11-10T18:41:25.500Z,100336.05
2017-11-10T18:43:53.180Z,100328.64
2017-11-10T18:46:20.979Z,100325.04
2017-11-10T18:48:54.427Z,100326.88
2017-11-10T18:51:22.114Z,100333.01
2017-11-10T18:53:49.828Z,100333.67
2017-11-10T18:56:17.652Z,100331.41
2017-11-10T18:58:45.474Z,100325.75
2017-11-10T19:01:13.129Z,100325.86
2017-11-10T19:03:40.855Z,100327.70
2017-11-10T19:06:08.664Z,100321.27
2017-11-10T19:08:36.356Z,100320.02
2017-11-10T19:11:04.094Z,100313.50
2017-11-10T19:13:31.791Z,100310.09
2017-11-10T19:15:59.491Z,100318.87
2017-11-10T19:18:27.184Z,100313.92
2017-11-10T19:20:54.969Z,100314.84
2017-11-10T19:23:22.705Z,100314.16
2017-11-10T19:25:50.403Z,100313.04
2017-11-10T19:28:18.028Z,100308.83
2017-11-10T19:30:45.732Z,100301.47
2017-11-10T19:33:13.416Z,100306.77
2017-11-10T19:35:41.104Z,100311.08
2017-11-10T19:38:08.723Z,100303.22
2017-11-10T19:40:36.486Z,100297.39
2017-11-10T19:43:04.167Z,100302.11
2017-11-10T19:45:32.004Z,100293.67
2017-11-10T19:47:59.700Z,100299.13
2017-11-10T19:50:27.339Z,100289.58
2017-11-10T19:52:55.029Z,100292.17
2017-11-10T19:55:22.766Z,100278.57
2017-11-10T19:57:50.417Z,100281.83
2017-11-10T20:00:18.052Z,100275.31
2017-11-10T20:02:45.825Z,100269.95
2017-11-10T20:05:13.453Z,100268.34
2017-11-10T20:07:41.140Z,100268.67
2017-11-10T20:10:08.933Z,100275.28
2017-11-10T20:12:36.651Z,100273.63
2017-11-10T20:15:04.283Z,100266.42
2017-11-10T20:17:31.968Z,100262.47
2017-11-10T20:19:59.748Z,100259.52
2017-11-10T20:22:27.437Z,100252.00
2017-11-10T20:24:55.228Z,100247.05
2017-11-10T20:27:22.940Z,100250.01
2017-11-10T20:29:50.652Z,100246.67
2017-11-10T20:32:19.361Z,100251.55
2017-11-10T20:34:47.089Z,100244.95
2017-11-10T20:37:14.714Z,100245.53
2017-11-10T20:39:42.449Z,100244.61
2017-11-10T20:42:10.147Z,100242.89
2017-11-10T20:44:37.821Z,100239.94
2017-11-10T20:47:05.552Z,100239.97
2017-11-10T20:49:33.288Z,100232.08
2017-11-10T20:52:00.912Z,100226.83
2017-11-10T20:54:28.663Z,100226.68
2017-11-10T20:56:56.279Z,100219.63
2017-11-10T20:59:23.904Z,100219.52
2017-11-10T21:01:52.469Z,100222.58
2017-11-10T21:04:20.108Z,100220.50
2017-11-10T21:06:47.729Z,100221.09
2017-11-10T21:09:15.404Z,100225.78
2017-11-10T21:11:43.118Z,100221.30
2017-11-10T21:14:10.744Z,100220.88
2017-11-10T21:16:38.480Z,100224.16
2017-11-10T21:19:06.157Z,100223.98
2017-11-10T21:21:33.879Z,100214.97
2017-11-10T21:24:01.600Z,100210.89
2017-11-10T21:26:29.220Z,100207.42
2017-11-10T21:28:56.837Z,100206.66
2017-11-10T21:31:24.513Z,100216.04
2017-11-10T21:33:52.196Z,100221.47
2017-11-10T21:36:19.900Z,100214.91
2017-11-10T21:38:47.577Z,100219.29
2017-11-10T21:41:15.380Z,100220.61
2017-11-10T21:43:43.006Z,100213.84
2017-11-10T21:46:10.727Z,100215.42
2017-11-10T21:48:38.518Z,100217.67
2017-11-10T21:51:06.204Z,100211.95
2017-11-10T21:53:33.877Z,100195.66
2017-11-10T21:56:01.568Z,100201.01
2017-11-10T21:58:29.382Z,100202.42
2017-11-10T22:00:57.121Z,100194.48
2017-11-10T22:03:24.896Z,100193.75
2017-11-10T22:05:52.524Z,100188.73
2017-11-10T22:08:20.201Z,100199.35
2017-11-10T22:10:47.898Z,100199.05
2017-11-10T22:13:15.578Z,100193.86
2017-11-10T22:15:43.314Z,100201.42
2017-11-10T22:18:10.996Z,100192.60
2017-11-10T22:20:38.653Z,100192.67
2017-11-10T22:23:06.432Z,100191.66
2017-11-10T22:25:34.081Z,100193.77
2017-11-10T22:28:01.969Z,100198.83
2017-11-10T22:30:29.640Z,100195.80
2017-11-10T22:32:57.376Z,100186.88
2017-11-10T22:35:25.061Z,100182.38
2017-11-10T22:37:52.812Z,100186.66
2017-11-10T22:40:20.431Z,100176.98
2017-11-10T22:42:48.109Z,100173.55
2017-11-10T22:45:15.788Z,100167.95
2017-11-10T22:47:43.404Z,100167.95
2017-11-10T22:50:11.124Z,100174.14
2017-11-10T22:52:38.824Z,100163.98
2017-11-10T22:55:06.453Z,100172.87
2017-11-10T22:57:34.173Z,100165.67
2017-11-10T23:00:02.509Z,100165.81
2017-11-10T23:02:30.141Z,100165.73
2017-11-10T23:04:57.901Z,100166.52
2017-11-10T23:07:25.560Z,100165.46
2017-11-10T23:09:53.225Z,100163.14
2017-11-10T23:12:20.949Z,100156.28
2017-11-10T23:14:48.671Z,100157.69
2017-11-10T23:17:16.288Z,100146.93
2017-11-10T23:19:44.005Z,100150.77
2017-11-10T23:22:12.112Z,100147.95
2017-11-10T23:24:39.729Z,100140.63
2017-11-10T23:27:07.412Z,100139.61
2017-11-10T23:29:35.152Z,100126.80
2017-11-10T23:32:02.773Z,100126.98
2017-11-10T23:34:30.454Z,100126.70
2017-11-10T23:36:58.138Z,100124.67
2017-11-10T23:39:25.766Z,100124.13
2017-11-10T23:41:54.202Z,100125.96
2017-11-10T23:44:21.878Z,100113.78
2017-11-10T23:46:49.494Z,100117.14
2017-11-10T23:49:17.168Z,100109.06
2017-11-10T23:51:44.850Z,100108.30
2017-11-10T23:54:12.472Z,100107.28
2017-11-10T23:56:40.085Z,100099.61
2017-11-10T23:59:07.747Z,100092.28
